Time;durP1;ratioP1;P1;durP2;ratioP2;P2;SDS_P1;SDS_P2;PMS_P1;PMS_P2;Temp;Humidity;BMP_temperature;BMP_pressure;BME280_temperature;BME280_humidity;BME280_pressure;Samples;Min_cycle;Max_cycle;Signal;HPM_P1;HPM_P2
2022/03/14 00:02:15;;;;;;;2.10;1.38;;;;;;;11.98;69.86;101550.28;5274016;28;20039;-69
2022/03/14 00:04:47;;;;;;;1.90;1.30;;;;;;;11.95;70.05;101542.66;5275852;28;20028;-70
2022/03/14 00:07:19;;;;;;;1.90;1.30;;;;;;;11.94;70.07;101541.81;5276386;28;20031;-70
2022/03/14 00:09:50;;;;;;;2.65;1.35;;;;;;;11.88;70.69;101544.91;5255654;28;20020;-70
2022/03/14 00:12:23;;;;;;;2.47;1.38;;;;;;;11.91;70.27;101556.00;5257577;28;20564;-70
2022/03/14 00:14:55;;;;;;;;;;;;;;;12.41;68.63;101555.53;5256905;28;20028;-70
2022/03/14 00:17:27;;;;;;;2.15;1.30;;;;;;;11.90;70.11;101556.97;5273096;28;19970;-69
2022/03/14 00:19:59;;;;;;;2.38;1.40;;;;;;;11.91;70.63;101571.75;5275340;28;20021;-70
2022/03/14 00:22:31;;;;;;;2.13;1.38;;;;;;;11.93;70.92;101571.63;5274516;28;20104;-70
2022/03/14 00:25:04;;;;;;;2.88;1.60;;;;;;;11.91;70.99;101563.88;5257329;28;20107;-69
2022/03/14 00:27:36;;;;;;;;;;;;;;;12.26;69.86;101570.75;5274290;28;20108;-70
2022/03/14 00:30:10;;;;;;;2.08;1.40;;;;;;;11.87;71.10;101577.38;5274112;28;20031;-70
2022/03/14 00:32:42;;;;;;;2.20;1.40;;;;;;;11.76;71.83;101575.56;5274315;28;20961;-70
2022/03/14 00:35:13;;;;;;;2.45;1.67;;;;;;;11.76;71.53;101580.81;5273473;28;20103;-70
2022/03/14 00:37:44;;;;;;;2.58;1.48;;;;;;;11.78;71.75;101588.56;5274233;28;20484;-70
2022/03/14 00:40:16;;;;;;;3.55;1.60;;;;;;;11.69;72.46;101582.25;5275649;28;20036;-70
2022/03/14 00:42:48;;;;;;;2.28;1.55;;;;;;;11.73;72.60;101596.81;5275140;28;20063;-70
2022/03/14 00:45:21;;;;;;;2.60;1.75;;;;;;;11.73;72.53;101599.41;5274408;28;20539;-70
2022/03/14 00:47:52;;;;;;;2.50;1.83;;;;;;;11.74;72.15;101600.25;5271212;28;20417;-70
2022/03/14 00:50:25;;;;;;;2.40;1.73;;;;;;;11.70;73.05;101602.28;5266985;28;20029;-70
2022/03/14 00:52:56;;;;;;;3.88;1.88;;;;;;;11.65;73.42;101600.03;5274100;28;20077;-70
2022/03/14 00:55:28;;;;;;;2.65;2.00;;;;;;;11.70;75.78;101612.78;5271052;28;20028;-70
2022/03/14 00:57:59;;;;;;;2.45;1.75;;;;;;;11.54;76.84;101599.19;5270397;28;20304;-70
2022/03/14 01:00:30;;;;;;;2.90;1.95;;;;;;;11.61;77.92;101609.09;5273601;28;20089;-70
2022/03/14 01:03:02;;;;;;;4.47;1.90;;;;;;;11.56;78.02;101620.91;5271254;28;20031;-70
2022/03/14 01:05:36;;;;;;;3.42;1.90;;;;;;;11.54;77.89;101607.06;5270551;28;20029;-70
2022/03/14 01:08:10;;;;;;;3.15;1.83;;;;;;;11.50;77.89;101624.81;5274674;28;20032;-70
2022/03/14 01:10:42;;;;;;;3.63;2.28;;;;;;;11.49;77.86;101623.16;5274317;28;20452;-71
2022/03/14 01:13:13;;;;;;;2.80;2.10;;;;;;;11.53;78.09;101629.00;5272472;28;20051;-70
2022/03/14 01:15:45;;;;;;;2.47;1.83;;;;;;;11.53;77.67;101629.00;5270104;28;20012;-70
2022/03/14 01:18:16;;;;;;;3.10;1.90;;;;;;;11.48;77.42;101628.50;5255232;28;20592;-70
2022/03/14 01:20:47;;;;;;;2.67;1.88;;;;;;;11.51;78.25;101634.34;5256577;28;20032;-70
2022/03/14 01:23:19;;;;;;;2.47;1.90;;;;;;;11.47;78.09;101632.91;5255843;28;20473;-70
2022/03/14 01:25:51;;;;;;;3.53;2.30;;;;;;;11.47;77.98;101637.34;5272750;28;20524;-70
2022/03/14 01:28:22;;;;;;;3.20;2.22;;;;;;;11.42;78.33;101640.31;5273920;28;20031;-70
2022/03/14 01:30:53;;;;;;;3.60;2.28;;;;;;;11.34;78.37;101629.56;5274547;28;20020;-70
2022/03/14 01:33:25;;;;;;;3.83;2.00;;;;;;;11.40;78.34;101642.19;5271461;28;20570;-69
2022/03/14 01:35:56;;;;;;;3.20;2.40;;;;;;;11.41;78.74;101647.34;5271878;28;20039;-70
2022/03/14 01:38:27;;;;;;;3.47;2.20;;;;;;;11.41;78.33;101662.25;5273153;28;20090;-70
2022/03/14 01:40:59;;;;;;;3.80;2.20;;;;;;;11.41;78.14;101649.97;5273379;28;20063;-70
2022/03/14 01:43:30;;;;;;;3.17;2.25;;;;;;;11.42;78.31;101650.81;5266233;28;20136;-70
2022/03/14 01:46:02;;;;;;;2.97;2.10;;;;;;;11.41;78.14;101646.53;5264722;28;20104;-70
2022/03/14 01:48:34;;;;;;;4.80;2.50;;;;;;;11.41;78.21;101655.22;5265178;28;20021;-70
2022/03/14 01:51:05;;;;;;;3.17;2.23;;;;;;;11.35;79.25;101650.44;5265981;28;20637;-70
2022/03/14 01:53:37;;;;;;;3.45;2.13;;;;;;;11.39;78.42;101664.16;5265124;28;20040;-70
2022/03/14 01:56:12;;;;;;;3.35;2.28;;;;;;;11.36;78.84;101653.88;5246860;28;20053;-70
2022/03/14 01:58:46;;;;;;;4.38;2.60;;;;;;;11.36;79.05;101667.00;5265087;28;20623;-70
2022/03/14 02:01:17;;;;;;;3.53;2.60;;;;;;;11.31;79.00;101669.97;5265469;28;20135;-70
2022/03/14 02:03:50;;;;;;;3.08;2.28;;;;;;;11.36;78.89;101680.94;5247800;28;20047;-70
2022/03/14 02:06:22;;;;;;;3.03;2.35;;;;;;;11.34;79.14;101676.78;5268633;28;20443;-70
2022/03/14 02:08:54;;;;;;;3.10;2.40;;;;;;;11.33;79.41;101667.25;5263113;28;20116;-71
2022/03/14 02:11:26;;;;;;;3.17;2.42;;;;;;;11.33;79.46;101677.75;5265704;28;20400;-70
2022/03/14 02:13:57;;;;;;;3.63;2.42;;;;;;;11.18;79.71;101662.19;5267429;28;20021;-70
2022/03/14 02:16:28;;;;;;;3.50;2.58;;;;;;;11.28;80.10;101685.09;5267761;28;20473;-70
2022/03/14 02:19:01;;;;;;;3.30;2.50;;;;;;;11.31;79.99;101690.97;5266334;28;20440;-70
2022/03/14 02:21:32;;;;;;;3.60;2.47;;;;;;;11.33;80.29;101696.94;5264684;28;20029;-70
2022/03/14 02:24:04;;;;;;;5.18;3.00;;;;;;;11.31;80.24;101701.44;5264872;28;20036;-70
2022/03/14 02:26:40;;;;;;;3.10;2.55;;;;;;;11.33;80.64;101699.56;5263430;28;20075;-70
2022/03/14 02:29:14;;;;;;;3.95;2.50;;;;;;;11.27;80.49;101702.63;5267732;28;20039;-71
2022/03/14 02:31:46;;;;;;;3.90;2.70;;;;;;;11.28;80.62;101696.44;5268572;28;20043;-70
2022/03/14 02:34:18;;;;;;;3.20;2.67;;;;;;;11.24;80.57;101699.41;5265861;28;20035;-70
2022/03/14 02:36:49;;;;;;;4.18;2.75;;;;;;;11.23;80.71;101700.34;5265858;28;20525;-70
2022/03/14 02:39:21;;;;;;;3.55;2.70;;;;;;;11.25;80.99;101696.69;5266869;28;20024;-70
2022/03/14 02:41:52;;;;;;;3.25;2.70;;;;;;;11.27;81.37;101701.81;5264925;28;20036;-70
2022/03/14 02:44:23;;;;;;;4.13;2.70;;;;;;;11.19;81.55;101707.63;5266531;28;20041;-71
2022/03/14 02:46:55;;;;;;;3.13;2.22;;;;;;;11.17;81.73;101704.25;5267365;28;20107;-71
2022/03/14 02:49:26;;;;;;;3.58;2.42;;;;;;;11.21;81.85;101710.94;5267287;28;20040;-70
2022/03/14 02:51:57;;;;;;;3.17;2.22;;;;;;;11.19;81.48;101708.44;5268205;28;20107;-70
2022/03/14 02:54:28;;;;;;;3.17;2.42;;;;;;;11.13;81.43;101708.03;5272336;28;20032;-70
2022/03/14 02:57:00;;;;;;;3.63;2.53;;;;;;;11.14;81.27;101715.81;5271978;28;20024;-71
2022/03/14 02:59:32;;;;;;;3.13;2.35;;;;;;;11.10;81.59;101734.50;5270599;28;20031;-70
2022/03/14 03:02:04;;;;;;;3.40;2.55;;;;;;;11.06;81.62;101730.41;5266466;28;20570;-70
2022/03/14 03:04:35;;;;;;;6.43;2.90;;;;;;;11.06;81.68;101736.53;5271072;28;20040;-70
2022/03/14 03:07:07;;;;;;;3.13;2.47;;;;;;;10.99;82.59;101752.81;5269600;28;20283;-70
2022/03/14 03:09:38;;;;;;;3.20;2.55;;;;;;;10.89;82.67;101755.25;5270447;28;20017;-70
2022/03/14 03:12:12;;;;;;;2.85;2.45;;;;;;;10.83;83.21;101761.75;5269908;28;20008;-70
2022/03/14 03:14:43;;;;;;;5.47;2.85;;;;;;;10.85;83.64;101762.50;5254676;28;20025;-70
2022/03/14 03:17:15;;;;;;;3.88;2.70;;;;;;;10.81;83.62;101766.28;5270480;28;20024;-71
2022/03/14 03:19:47;;;;;;;2.72;2.40;;;;;;;10.68;85.30;101763.69;5270878;28;20265;-70
2022/03/14 03:22:18;;;;;;;2.88;2.25;;;;;;;10.70;87.51;101774.91;5269775;28;20040;-70
2022/03/14 03:24:49;;;;;;;3.60;3.00;;;;;;;10.64;91.18;101782.34;5267079;28;20033;-70
2022/03/14 03:27:20;;;;;;;3.38;2.55;;;;;;;10.53;92.73;101779.63;5270939;28;20017;-70
2022/03/14 03:29:52;;;;;;;5.82;2.80;;;;;;;10.49;94.44;101797.34;5252425;28;20028;-70
2022/03/14 03:32:23;;;;;;;3.47;2.80;;;;;;;10.47;94.32;101810.56;5268593;28;20067;-70
2022/03/14 03:34:54;;;;;;;3.08;2.67;;;;;;;10.47;95.17;101814.97;5270214;28;20053;-70
2022/03/14 03:37:26;;;;;;;3.50;2.55;;;;;;;10.44;94.89;101823.88;5269769;28;20032;-69
2022/03/14 03:39:57;;;;;;;3.35;2.65;;;;;;;10.45;95.36;101830.81;5271388;28;20032;-70
2022/03/14 03:42:28;;;;;;;3.53;2.85;;;;;;;10.42;94.40;101835.41;5270926;28;20140;-69
2022/03/14 03:44:59;;;;;;;4.82;2.95;;;;;;;10.31;95.44;101843.16;5270867;28;20020;-69
2022/03/14 03:47:31;;;;;;;3.55;3.10;;;;;;;10.35;95.41;101848.09;5267921;28;20034;-69
2022/03/14 03:50:02;;;;;;;4.25;3.15;;;;;;;10.25;95.98;101828.69;5269772;28;20028;-69
2022/03/14 03:52:33;;;;;;;4.43;3.05;;;;;;;10.26;96.08;101851.31;5252514;28;20082;-69
2022/03/14 03:55:05;;;;;;;4.03;2.88;;;;;;;10.18;97.31;101861.44;5268587;28;20650;-69
2022/03/14 03:57:37;;;;;;;4.75;3.30;;;;;;;10.15;97.82;101856.41;5267163;28;20081;-69
2022/03/14 04:00:12;;;;;;;3.88;3.25;;;;;;;10.13;99.56;101863.53;5269345;28;20024;-69
2022/03/14 04:02:44;;;;;;;4.60;3.38;;;;;;;10.10;100.00;101869.81;5269779;28;20107;-69
2022/03/14 04:05:16;;;;;;;4.07;3.13;;;;;;;10.07;100.00;101875.25;5267454;28;20028;-69
2022/03/14 04:07:48;;;;;;;5.35;3.65;;;;;;;10.05;100.00;101887.59;5269354;28;20020;-69
2022/03/14 04:10:20;;;;;;;4.57;3.80;;;;;;;9.97;100.00;101890.72;5271234;28;20024;-69
2022/03/14 04:12:52;;;;;;;4.57;4.03;;;;;;;9.97;100.00;101884.66;5267740;28;20010;-70
2022/03/14 04:15:23;;;;;;;5.30;4.30;;;;;;;9.95;100.00;101892.59;5267871;28;20367;-69
2022/03/14 04:18:00;;;;;;;4.50;3.92;;;;;;;9.97;100.00;101901.19;5273528;28;20024;-69
2022/03/14 04:20:31;;;;;;;4.20;3.58;;;;;;;9.92;100.00;101905.03;5275730;28;20078;-70
2022/03/14 04:23:02;;;;;;;5.22;4.20;;;;;;;9.92;100.00;101908.50;5275421;28;20028;-69
2022/03/14 04:25:34;;;;;;;6.38;4.47;;;;;;;9.88;100.00;101909.63;5273030;28;20078;-69
2022/03/14 04:28:05;;;;;;;6.80;4.10;;;;;;;9.88;100.00;101912.25;5274729;28;20385;-69
2022/03/14 04:30:37;;;;;;;5.18;4.35;;;;;;;9.86;100.00;101916.75;5274060;28;20497;-69
2022/03/14 04:33:09;;;;;;;6.00;4.07;;;;;;;9.79;100.00;101909.41;5257640;28;20016;-69
2022/03/14 04:35:40;;;;;;;5.13;4.20;;;;;;;9.84;100.00;101926.47;5274321;28;20028;-70
2022/03/14 04:38:12;;;;;;;4.28;3.85;;;;;;;9.82;100.00;101936.22;5274941;28;20028;-70
2022/03/14 04:40:44;;;;;;;6.25;4.53;;;;;;;9.78;100.00;101934.75;5274160;28;20028;-69
2022/03/14 04:43:15;;;;;;;6.10;4.32;;;;;;;9.71;100.00;101930.84;5272930;28;20040;-69
2022/03/14 04:45:47;;;;;;;5.95;4.40;;;;;;;9.73;100.00;101942.03;5275047;28;20040;-70
2022/03/14 04:48:19;;;;;;;6.03;4.60;;;;;;;9.69;100.00;101941.38;5257919;28;20024;-70
2022/03/14 04:50:50;;;;;;;6.35;4.70;;;;;;;9.69;100.00;101940.53;5275240;28;20025;-69
2022/03/14 04:53:22;;;;;;;5.70;4.82;;;;;;;9.69;100.00;101944.00;5268426;28;20016;-69
2022/03/14 04:55:53;;;;;;;5.80;5.10;;;;;;;9.66;100.00;101945.97;5273792;28;20032;-70
2022/03/14 04:58:24;;;;;;;6.15;5.25;;;;;;;9.61;100.00;101941.03;5274195;28;20044;-69
2022/03/14 05:00:56;;;;;;;6.60;5.28;;;;;;;9.57;100.00;101944.78;5271028;28;20532;-69
2022/03/14 05:03:27;;;;;;;6.40;4.70;;;;;;;9.61;100.00;101958.50;5274419;28;20501;-69
2022/03/14 05:05:58;;;;;;;5.90;4.68;;;;;;;9.58;100.00;101970.00;5274411;28;20020;-69
2022/03/14 05:08:29;;;;;;;7.50;5.20;;;;;;;9.57;100.00;101985.81;5275302;28;20027;-69
2022/03/14 05:11:01;;;;;;;7.70;4.93;;;;;;;9.58;100.00;101988.31;5274524;28;20020;-69
2022/03/14 05:13:32;;;;;;;6.68;5.47;;;;;;;9.56;100.00;101990.19;5272864;28;20035;-69
2022/03/14 05:16:04;;;;;;;8.93;5.75;;;;;;;9.53;100.00;101994.78;5272249;28;20028;-69
2022/03/14 05:18:35;;;;;;;8.27;5.20;;;;;;;9.55;100.00;101995.53;5274206;28;20051;-69
2022/03/14 05:21:06;;;;;;;6.40;5.80;;;;;;;9.55;100.00;102003.38;5275585;28;20027;-69
2022/03/14 05:23:38;;;;;;;8.45;5.93;;;;;;;9.52;100.00;101998.34;5274702;28;20020;-69
2022/03/14 05:26:09;;;;;;;8.38;6.53;;;;;;;9.45;100.00;101996.09;5272605;28;20029;-69
2022/03/14 05:28:40;;;;;;;9.75;6.78;;;;;;;9.53;100.00;102003.47;5274363;28;20056;-69
2022/03/14 05:31:11;;;;;;;7.47;6.65;;;;;;;9.55;100.00;102008.63;5272559;28;20043;-69
2022/03/14 05:33:43;;;;;;;9.68;7.10;;;;;;;9.52;100.00;102017.50;5274457;28;20032;-69
2022/03/14 05:36:14;;;;;;;8.68;7.18;;;;;;;9.52;100.00;102020.09;5273028;28;20025;-69
2022/03/14 05:38:45;;;;;;;9.52;7.57;;;;;;;9.53;100.00;102023.56;5274750;28;20048;-69
2022/03/14 05:41:17;;;;;;;8.77;7.35;;;;;;;9.54;100.00;102033.06;5274943;28;20656;-69
2022/03/14 05:43:48;;;;;;;9.43;7.90;;;;;;;9.53;100.00;102034.03;5297493;22;20059;-69
2022/03/14 05:46:19;;;;;;;12.07;8.73;;;;;;;9.53;100.00;102039.25;5278158;28;20032;-68
2022/03/14 05:48:51;;;;;;;9.32;8.20;;;;;;;9.53;100.00;102044.47;5266519;28;20051;-69
2022/03/14 05:51:22;;;;;;;13.10;7.97;;;;;;;9.52;100.00;102050.66;5284109;28;20020;-68
2022/03/14 05:53:53;;;;;;;11.13;9.02;;;;;;;9.51;100.00;102052.44;5286162;28;20071;-69
2022/03/14 05:56:25;;;;;;;11.48;8.98;;;;;;;9.53;100.00;102055.78;5287704;28;20024;-68
2022/03/14 05:58:57;;;;;;;11.95;9.35;;;;;;;9.53;100.00;102066.25;5282507;28;20028;-68
2022/03/14 06:01:28;;;;;;;12.70;9.13;;;;;;;9.57;100.00;102064.28;5266427;28;20023;-69
2022/03/14 06:04:00;;;;;;;12.98;9.07;;;;;;;9.58;100.00;102073.81;5283705;28;20024;-69
2022/03/14 06:06:31;;;;;;;11.35;9.65;;;;;;;9.59;100.00;102073.75;5267328;28;20055;-68
2022/03/14 06:09:02;;;;;;;13.32;9.38;;;;;;;9.60;100.00;102074.56;5267786;28;20016;-68
2022/03/14 06:11:34;;;;;;;12.98;9.50;;;;;;;9.59;100.00;102078.97;5265732;28;20400;-68
2022/03/14 06:14:06;;;;;;;13.93;9.57;;;;;;;9.60;100.00;102091.13;5278395;28;20056;-69
2022/03/14 06:16:38;;;;;;;14.10;10.10;;;;;;;9.63;100.00;102090.94;5280200;28;20028;-68
2022/03/14 06:19:09;;;;;;;15.88;10.27;;;;;;;9.64;100.00;102092.59;5284037;28;20117;-69
2022/03/14 06:21:40;;;;;;;11.30;9.60;;;;;;;9.69;100.00;102089.69;5285395;28;20124;-69
2022/03/14 06:24:12;;;;;;;13.20;10.35;;;;;;;9.69;100.00;102100.16;5286636;28;20020;-68
2022/03/14 06:26:43;;;;;;;12.45;10.07;;;;;;;9.67;100.00;102105.50;5284286;28;20055;-68
2022/03/14 06:29:14;;;;;;;12.63;10.40;;;;;;;9.65;100.00;102111.75;5288417;28;20042;-68
2022/03/14 06:31:46;;;;;;;12.32;10.63;;;;;;;9.66;100.00;102119.53;5290769;28;20024;-68
2022/03/14 06:34:17;;;;;;;13.70;10.93;;;;;;;9.63;100.00;102119.72;5270642;28;20047;-68
2022/03/14 06:36:48;;;;;;;13.93;11.55;;;;;;;9.66;100.00;102126.50;5286660;28;20028;-68
2022/03/14 06:39:19;;;;;;;13.85;11.20;;;;;;;9.65;100.00;102128.28;5287613;28;20023;-69
2022/03/14 06:41:51;;;;;;;13.20;10.68;;;;;;;9.66;100.00;102127.38;5268843;28;20028;-69
2022/03/14 06:44:23;;;;;;;13.70;10.80;;;;;;;9.66;100.00;102136.97;5288719;28;20040;-68
2022/03/14 06:46:55;;;;;;;13.55;11.38;;;;;;;9.66;100.00;102135.22;5288497;28;20027;-69
2022/03/14 06:49:26;;;;;;;13.23;11.38;;;;;;;9.65;100.00;102138.75;5288189;28;20039;-68
2022/03/14 06:51:58;;;;;;;14.65;11.35;;;;;;;9.67;100.00;102139.53;5286546;28;20050;-69
2022/03/14 06:54:29;;;;;;;14.25;10.93;;;;;;;9.68;100.00;102142.97;5282765;28;20115;-68
2022/03/14 06:57:00;;;;;;;16.20;11.35;;;;;;;9.70;100.00;102147.19;5285359;28;20054;-69
2022/03/14 06:59:32;;;;;;;15.15;11.10;;;;;;;9.74;100.00;102146.06;5284882;28;20068;-67
2022/03/14 07:02:04;;;;;;;14.23;11.05;;;;;;;9.73;100.00;102148.75;5270285;28;20469;-68
2022/03/14 07:04:36;;;;;;;16.60;11.30;;;;;;;9.75;100.00;102155.59;5287222;28;20028;-69
2022/03/14 07:07:07;;;;;;;16.33;11.57;;;;;;;9.80;100.00;102159.72;5288275;28;20033;-69
2022/03/14 07:09:39;;;;;;;13.98;11.32;;;;;;;9.81;100.00;102166.63;5286685;28;20020;-69
2022/03/14 07:12:11;;;;;;;13.90;11.15;;;;;;;9.85;100.00;102161.13;5272034;28;20165;-69
2022/03/14 07:14:42;;;;;;;13.55;11.02;;;;;;;9.91;100.00;102170.38;5283484;28;20118;-68
2022/03/14 07:17:13;;;;;;;12.63;10.48;;;;;;;9.95;100.00;102167.47;5278013;28;20119;-69
2022/03/14 07:19:46;;;;;;;16.42;11.23;;;;;;;9.99;100.00;102176.81;5283519;28;20480;-67
2022/03/14 07:22:19;;;;;;;13.73;11.00;;;;;;;10.02;100.00;102174.97;5281676;28;20119;-68
2022/03/14 07:24:51;;;;;;;13.63;10.77;;;;;;;10.05;100.00;102175.63;5284687;28;20024;-68
2022/03/14 07:27:22;;;;;;;14.85;11.25;;;;;;;10.00;100.00;102172.44;5287766;28;20067;-68
2022/03/14 07:29:53;;;;;;;13.70;11.13;;;;;;;10.02;100.00;102174.97;5286754;28;20024;-68
2022/03/14 07:32:24;;;;;;;14.15;11.00;;;;;;;10.02;100.00;102180.19;5283581;28;20032;-68
2022/03/14 07:34:57;;;;;;;14.40;10.75;;;;;;;10.07;100.00;102181.59;5281285;28;20105;-68
2022/03/14 07:37:28;;;;;;;15.48;11.75;;;;;;;10.12;100.00;102181.31;5286402;28;20028;-67
2022/03/14 07:39:59;;;;;;;13.05;11.00;;;;;;;10.10;100.00;102177.94;5283179;28;20662;-68
2022/03/14 07:42:30;;;;;;;14.90;11.45;;;;;;;10.17;100.00;102184.50;5267322;28;20024;-69
2022/03/14 07:45:02;;;;;;;14.30;11.48;;;;;;;10.20;100.00;102184.31;5291603;28;20030;-69
2022/03/14 07:47:33;;;;;;;17.35;11.95;;;;;;;10.24;100.00;102184.03;5286167;28;20024;-69
2022/03/14 07:50:07;;;;;;;15.18;11.18;;;;;;;10.32;100.00;102194.06;5291080;28;20035;-69
2022/03/14 07:52:39;;;;;;;18.85;10.65;;;;;;;10.39;100.00;102200.59;5271220;28;20020;-67
2022/03/14 07:55:11;;;;;;;15.35;11.35;;;;;;;10.42;100.00;102202.19;5279443;28;20043;-68
2022/03/14 07:57:43;;;;;;;14.00;11.52;;;;;;;10.44;100.00;102210.78;5281275;28;20577;-69
2022/03/14 08:00:18;;;;;;;18.92;12.73;;;;;;;10.39;100.00;102195.34;5276502;28;20039;-67
2022/03/14 08:02:50;;;;;;;17.35;12.98;;;;;;;10.41;100.00;102206.56;5273227;28;20031;-67
2022/03/14 08:05:25;;;;;;;17.13;11.40;;;;;;;10.42;100.00;102220.53;5285466;28;20028;-68
2022/03/14 08:07:57;;;;;;;16.25;11.75;;;;;;;10.39;100.00;102226.78;5284871;28;20495;-68
2022/03/14 08:10:29;;;;;;;17.88;12.52;;;;;;;10.42;100.00;102229.22;5287222;28;20036;-69
2022/03/14 08:13:00;;;;;;;15.32;11.95;;;;;;;10.42;100.00;102226.59;5286448;28;20491;-68
2022/03/14 08:15:33;;;;;;;16.05;12.13;;;;;;;10.47;100.00;102227.16;5284575;28;20075;-69
2022/03/14 08:18:08;;;;;;;18.75;12.25;;;;;;;10.42;100.00;102226.59;5286131;28;20023;-69
2022/03/14 08:20:40;;;;;;;22.17;12.93;;;;;;;10.44;100.00;102239.59;5286876;28;20059;-69
2022/03/14 08:23:11;;;;;;;16.80;11.25;;;;;;;10.47;100.00;102252.53;5284960;28;20028;-69
2022/03/14 08:25:42;;;;;;;15.02;11.65;;;;;;;10.53;100.00;102246.91;5290007;28;20019;-69
2022/03/14 08:28:13;;;;;;;15.88;10.95;;;;;;;10.52;100.00;102249.59;5269041;28;20089;-68
2022/03/14 08:30:46;;;;;;;14.77;11.07;;;;;;;10.50;100.00;102254.13;5288289;28;20024;-69
2022/03/14 08:33:20;;;;;;;16.95;12.05;;;;;;;10.54;100.00;102247.75;5285002;28;20021;-69
2022/03/14 08:35:52;;;;;;;24.25;11.65;;;;;;;10.52;100.00;102260.09;5286358;28;20031;-69
2022/03/14 08:38:24;;;;;;;15.30;11.13;;;;;;;10.59;100.00;102266.63;5286885;28;20020;-69
2022/03/14 08:40:55;;;;;;;14.68;11.77;;;;;;;10.63;100.00;102266.34;5269906;28;20496;-69
2022/03/14 08:43:27;;;;;;;18.65;10.98;;;;;;;10.74;100.00;102264.84;5288955;28;20076;-69
2022/03/14 08:45:58;;;;;;;14.43;11.20;;;;;;;10.77;100.00;102269.91;5285253;28;20123;-68
2022/03/14 08:48:30;;;;;;;15.88;9.95;;;;;;;10.82;100.00;102276.53;5280004;28;20473;-68
2022/03/14 08:51:01;;;;;;;14.38;9.60;;;;;;;10.86;100.00;102280.63;5274581;28;20051;-68
2022/03/14 08:53:33;;;;;;;14.25;9.80;;;;;;;10.83;99.57;102290.47;5261224;28;20386;-69
2022/03/14 08:56:07;;;;;;;13.68;9.18;;;;;;;10.92;99.43;102293.38;5284706;28;20027;-70
2022/03/14 09:04:47;;;;;;;13.52;8.85;;;;;;;11.01;97.77;102314.69;6185072;22;20469;-68
2022/03/14 09:07:29;;;;;;;13.52;8.52;;;;;;;11.19;97.65;102314.38;5241626;28;20021;-68
2022/03/14 09:10:06;;;;;;;13.43;8.02;;;;;;;11.30;96.58;102316.31;5241665;28;20471;-69
2022/03/14 09:12:38;;;;;;;14.63;8.00;;;;;;;11.33;95.24;102321.38;5238468;28;20053;-68
2022/03/14 09:15:11;;;;;;;13.18;9.05;;;;;;;11.38;94.04;102327.16;5231889;28;20051;-69
2022/03/14 09:18:03;;;;;;;14.52;9.82;;;;;;;11.68;94.90;102331.34;5230103;28;20033;-69
2022/03/14 09:20:38;;;;;;;14.25;8.80;;;;;;;11.64;93.92;102335.97;5230536;28;20025;-69
2022/03/14 09:23:10;;;;;;;16.52;9.40;;;;;;;11.66;92.25;102334.06;5229310;28;20398;-69
2022/03/14 09:25:41;;;;;;;12.05;8.60;;;;;;;11.73;90.51;102338.91;5231334;28;20029;-69
2022/03/14 09:28:13;;;;;;;15.88;8.88;;;;;;;11.83;90.06;102337.38;5229571;28;20025;-72
2022/03/14 09:30:44;;;;;;;12.13;7.90;;;;;;;11.97;89.94;102333.84;5229257;28;20056;-72
2022/03/14 09:33:16;;;;;;;13.63;7.43;;;;;;;12.08;88.03;102337.44;5227240;28;20104;-72
2022/03/14 09:35:47;;;;;;;11.38;7.57;;;;;;;11.97;86.47;102341.72;5210828;28;20037;-72
2022/03/14 09:38:19;;;;;;;13.60;6.53;;;;;;;11.98;84.68;102346.06;5229518;28;20026;-72
2022/03/14 09:40:50;;;;;;;11.40;6.60;;;;;;;12.07;83.38;102350.69;5229955;28;20328;-72
2022/03/14 09:43:25;;;;;;;14.20;7.50;;;;;;;12.05;84.20;102355.22;5228318;28;20104;-72
2022/03/14 09:45:58;;;;;;;12.82;7.55;;;;;;;12.09;83.51;102354.06;5230595;28;20041;-72
2022/03/14 09:48:36;;;;;;;12.00;7.72;;;;;;;12.24;83.99;102368.78;5232743;28;20482;-73
2022/03/14 09:51:07;;;;;;;8.82;7.13;;;;;;;12.42;82.87;102371.94;5233367;28;20025;-73
2022/03/14 09:53:39;;;;;;;11.18;6.72;;;;;;;12.42;81.46;102382.44;5231734;28;20714;-72
2022/03/14 09:56:11;;;;;;;12.63;6.93;;;;;;;12.43;81.15;102385.94;5228703;28;20540;-72
2022/03/14 09:58:44;;;;;;;10.88;7.18;;;;;;;12.46;80.67;102390.97;5232542;28;20030;-73
2022/03/14 10:01:17;;;;;;;10.18;6.50;;;;;;;12.47;80.86;102397.94;5230829;28;20057;-72
2022/03/14 10:03:49;;;;;;;11.88;7.20;;;;;;;12.55;81.46;102401.72;5218716;28;20037;-72
2022/03/14 10:06:20;;;;;;;9.98;6.60;;;;;;;12.54;79.87;102401.78;5236850;28;20045;-72
2022/03/14 10:08:51;;;;;;;12.13;6.68;;;;;;;12.60;79.92;102406.66;5236328;28;20498;-72
2022/03/14 10:11:23;;;;;;;10.35;6.70;;;;;;;12.47;78.80;102405.81;5235393;28;20077;-72
2022/03/14 10:13:54;;;;;;;9.88;6.35;;;;;;;12.69;78.73;102407.78;5235708;28;20032;-72
2022/03/14 10:16:26;;;;;;;8.85;5.85;;;;;;;12.83;77.62;102411.16;5235296;28;20124;-73
2022/03/14 10:19:01;;;;;;;10.82;6.22;;;;;;;12.89;76.48;102412.53;5210338;28;20524;-72
2022/03/14 10:21:35;;;;;;;8.95;5.07;;;;;;;12.85;74.36;102408.44;5232836;28;20030;-72
2022/03/14 10:24:08;;;;;;;10.18;6.13;;;;;;;12.93;75.32;102423.69;5212061;28;20476;-72
2022/03/14 10:26:42;;;;;;;6.45;5.38;;;;;;;12.75;74.29;102421.38;5232788;28;20021;-70
2022/03/14 10:29:14;;;;;;;9.95;6.50;;;;;;;12.71;74.64;102440.09;5231632;28;20401;-70
2022/03/14 10:31:54;;;;;;;8.68;7.00;;;;;;;12.75;75.15;102439.78;5233033;28;20033;-69
2022/03/14 10:34:25;;;;;;;9.60;7.13;;;;;;;12.68;75.33;102427.16;5230974;28;20025;-69
2022/03/14 10:37:00;;;;;;;11.98;8.55;;;;;;;12.78;75.10;102444.84;5235079;28;20021;-70
2022/03/14 10:39:32;;;;;;;12.73;9.27;;;;;;;12.69;74.01;102445.47;5223756;28;20434;-69
2022/03/14 10:42:05;;;;;;;12.07;9.70;;;;;;;12.70;74.37;102447.16;5233096;28;20024;-69
2022/03/14 10:44:38;;;;;;;11.93;8.83;;;;;;;12.59;75.13;102441.78;5229898;28;20112;-70
2022/03/14 10:47:12;;;;;;;12.50;8.60;;;;;;;12.72;75.41;102450.50;5233737;28;20064;-70
2022/03/14 10:49:44;;;;;;;9.90;7.70;;;;;;;12.98;74.48;102447.88;5232927;28;20044;-70
2022/03/14 10:52:18;;;;;;;12.55;6.32;;;;;;;13.06;74.05;102462.19;5231724;28;20033;-70
2022/03/14 10:54:50;;;;;;;10.70;6.28;;;;;;;13.07;73.15;102457.78;5234417;28;20035;-69
2022/03/14 10:57:25;;;;;;;9.75;6.20;;;;;;;13.22;72.86;102469.00;5215539;28;20021;-70
2022/03/14 10:59:57;;;;;;;13.75;5.80;;;;;;;13.17;71.74;102463.22;5225490;28;20120;-70
2022/03/14 11:02:29;;;;;;;6.03;4.55;;;;;;;13.19;71.81;102464.81;5213093;28;20025;-70
2022/03/14 11:05:01;;;;;;;14.30;5.78;;;;;;;13.32;71.91;102462.19;5208989;28;20045;-70
2022/03/14 11:07:32;;;;;;;8.80;4.80;;;;;;;13.42;70.96;102462.38;5224742;28;20136;-70
2022/03/14 11:10:06;;;;;;;8.27;5.25;;;;;;;13.58;71.21;102469.06;5229891;28;20021;-70
2022/03/14 11:12:38;;;;;;;9.63;5.05;;;;;;;13.73;69.02;102466.28;5231292;28;20022;-70
2022/03/14 11:15:09;;;;;;;9.50;4.70;;;;;;;13.87;68.85;102474.03;5233836;28;20079;-70
2022/03/14 11:17:41;;;;;;;7.55;3.88;;;;;;;13.94;66.96;102474.41;5234590;28;20033;-71
2022/03/14 11:20:12;;;;;;;7.43;4.70;;;;;;;13.96;66.52;102467.25;5232277;28;20033;-70
2022/03/14 11:22:44;;;;;;;7.78;4.88;;;;;;;13.83;65.64;102459.41;5231996;28;20029;-70
2022/03/14 11:25:16;;;;;;;5.45;3.67;;;;;;;13.92;65.67;102463.16;5233144;28;20040;-70
2022/03/14 11:27:49;;;;;;;10.32;4.18;;;;;;;14.01;65.52;102470.38;5233340;28;20033;-70
2022/03/14 11:30:21;;;;;;;7.65;3.17;;;;;;;13.78;64.69;102466.78;5230571;28;20413;-70
2022/03/14 11:32:52;;;;;;;8.50;3.03;;;;;;;13.84;63.39;102467.19;5232614;28;20018;-70
2022/03/14 11:35:24;;;;;;;7.97;3.10;;;;;;;13.79;63.49;102468.50;5231142;28;20040;-70
2022/03/14 11:37:56;;;;;;;7.00;3.30;;;;;;;13.80;63.64;102473.63;5233128;28;20029;-70
2022/03/14 11:40:29;;;;;;;6.28;3.08;;;;;;;13.77;62.71;102476.47;5231929;28;20033;-70
2022/03/14 11:43:00;;;;;;;6.73;3.00;;;;;;;14.14;63.66;102476.44;5232264;28;20029;-70
2022/03/14 11:45:32;;;;;;;5.00;3.85;;;;;;;14.32;62.65;102475.06;5230049;28;20314;-70
2022/03/14 11:48:05;;;;;;;6.60;3.20;;;;;;;14.50;61.63;102464.13;5232546;28;20429;-70